Time;durP1;ratioP1;P1;durP2;ratioP2;P2;SDS_P1;SDS_P2;PMS_P1;PMS_P2;Temp;Humidity;BMP_temperature;BMP_pressure;BME280_temperature;BME280_humidity;BME280_pressure;Samples;Min_cycle;Max_cycle;Signal;HPM_P1;HPM_P2
2023/07/30 00:01:12;;;;;;;4.47;3.03;;;;;;;23.29;51.61;96808.69;5087934;28;20208;-73
2023/07/30 00:03:39;;;;;;;3.77;2.60;;;;;;;23.36;51.15;96817.72;5088083;28;20193;-73
2023/07/30 00:06:07;;;;;;;3.77;2.80;;;;;;;23.33;51.35;96818.84;5087967;28;20200;-73
2023/07/30 00:08:34;;;;;;;3.33;2.67;;;;;;;23.29;51.73;96812.16;5087819;28;20222;-73
2023/07/30 00:11:01;;;;;;;4.43;2.90;;;;;;;23.07;52.22;96811.81;5087489;28;20225;-73
2023/07/30 00:13:28;;;;;;;3.47;2.83;;;;;;;23.25;52.09;96809.97;5088400;28;20682;-73
2023/07/30 00:15:55;;;;;;;3.93;2.83;;;;;;;23.01;52.99;96808.00;5087572;28;20193;-74
2023/07/30 00:18:22;;;;;;;3.33;2.80;;;;;;;22.99;52.56;96814.41;5087729;28;20675;-73
2023/07/30 00:20:51;;;;;;;3.17;2.63;;;;;;;22.93;52.99;96805.28;5087319;28;20204;-72
2023/07/30 00:23:18;;;;;;;3.43;3.13;;;;;;;22.70;53.14;96805.88;5087405;28;20181;-84
2023/07/30 00:25:45;;;;;;;4.57;2.87;;;;;;;22.72;53.38;96811.81;5069711;28;20210;-85
2023/07/30 00:28:12;;;;;;;4.93;3.03;;;;;;;22.71;51.91;96789.06;5087381;28;20199;-85
2023/07/30 00:30:39;;;;;;;4.03;2.70;;;;;;;22.61;52.66;96813.72;5069741;28;20222;-79
2023/07/30 00:33:06;;;;;;;3.30;2.90;;;;;;;22.48;52.84;96815.84;5087196;28;20206;-76
2023/07/30 00:35:34;;;;;;;5.13;2.97;;;;;;;22.32;53.27;96801.63;5069214;28;20182;-75
2023/07/30 00:38:01;;;;;;;4.07;3.47;;;;;;;22.39;53.19;96814.09;5087285;28;20187;-73
2023/07/30 00:40:28;;;;;;;4.50;3.37;;;;;;;22.07;54.50;96818.97;5087211;28;20187;-78
2023/07/30 00:42:55;;;;;;;6.23;3.67;;;;;;;22.05;55.16;96802.47;5069234;28;20194;-80
2023/07/30 00:45:23;;;;;;;3.63;3.33;;;;;;;21.99;56.21;96816.25;5069041;28;20891;-84
2023/07/30 00:47:50;;;;;;;5.13;4.07;;;;;;;21.83;57.07;96823.94;5087378;28;20186;-82
2023/07/30 00:50:18;;;;;;;5.93;3.70;;;;;;;21.73;57.49;96808.16;5068801;28;20220;-83
2023/07/30 00:52:45;;;;;;;6.73;3.83;;;;;;;21.53;58.20;96809.19;5069372;28;20689;-80
2023/07/30 00:55:13;;;;;;;4.57;3.23;;;;;;;21.14;59.27;96790.97;5087489;28;20197;-76
2023/07/30 00:57:41;;;;;;;4.80;3.77;;;;;;;20.97;59.93;96809.09;5087179;28;20306;-73
2023/07/30 01:00:09;;;;;;;8.10;3.93;;;;;;;20.82;60.15;96805.22;5069097;28;20182;-80
2023/07/30 01:02:36;;;;;;;6.30;3.80;;;;;;;20.73;60.36;96800.78;5068931;28;20605;-81
2023/07/30 01:05:04;;;;;;;5.30;3.90;;;;;;;20.45;61.27;96809.47;5069186;28;20200;-79
2023/07/30 01:07:32;;;;;;;4.13;3.50;;;;;;;20.75;60.85;96798.84;5086772;28;20194;-81
2023/07/30 01:10:00;;;;;;;4.97;3.50;;;;;;;20.92;60.29;96811.31;5086993;28;20309;-78
2023/07/30 01:12:32;;;;;;;3.73;3.33;;;;;;;20.65;61.37;96805.91;5069380;28;20227;-72
2023/07/30 01:14:59;;;;;;;6.03;3.80;;;;;;;20.51;61.94;96811.56;5068611;28;20601;-81
2023/07/30 01:17:31;;;;;;;4.03;3.47;;;;;;;20.69;61.61;96811.75;5069358;28;20192;-72
2023/07/30 01:19:58;;;;;;;3.33;3.03;;;;;;;20.64;61.77;96809.50;5068349;28;20700;-75
2023/07/30 01:22:25;;;;;;;4.03;3.50;;;;;;;20.35;62.74;96807.78;5068897;28;20195;-72
2023/07/30 01:24:52;;;;;;;8.27;4.10;;;;;;;20.09;63.74;96807.44;5068461;28;20184;-71
2023/07/30 01:27:25;;;;;;;6.20;3.83;;;;;;;19.84;64.34;96800.00;5068675;28;20238;-71
2023/07/30 01:29:59;;;;;;;6.00;3.83;;;;;;;19.87;64.41;96810.25;5068131;28;20220;-73
2023/07/30 01:32:28;;;;;;;6.73;3.77;;;;;;;19.87;64.90;96807.63;5086740;28;20189;-71
2023/07/30 01:34:57;;;;;;;5.03;4.10;;;;;;;20.00;64.88;96810.84;5072681;28;20752;-77
2023/07/30 01:37:26;;;;;;;5.10;3.53;;;;;;;20.14;65.00;96807.84;5072718;28;20263;-77
2023/07/30 01:39:53;;;;;;;4.57;3.67;;;;;;;20.18;64.74;96798.72;5072892;28;20211;-72
2023/07/30 01:42:20;;;;;;;4.30;3.87;;;;;;;19.97;65.71;96804.06;5072540;28;20195;-74
2023/07/30 01:44:47;;;;;;;5.57;4.13;;;;;;;20.02;65.50;96777.38;5072986;28;20609;-72
2023/07/30 01:47:14;;;;;;;5.37;4.00;;;;;;;19.98;65.95;96797.84;5072617;28;20180;-72
2023/07/30 01:49:42;;;;;;;4.23;3.70;;;;;;;19.97;65.58;96800.63;5090391;28;20624;-73
2023/07/30 01:52:09;;;;;;;4.93;3.73;;;;;;;20.01;65.23;96804.66;5090665;28;20192;-73
2023/07/30 01:54:36;;;;;;;3.77;3.33;;;;;;;19.94;65.13;96800.88;5090425;28;20687;-72
2023/07/30 01:57:03;;;;;;;4.70;3.47;;;;;;;19.87;65.24;96799.72;5072546;28;20188;-72
2023/07/30 01:59:30;;;;;;;5.33;3.43;;;;;;;19.90;65.33;96802.09;5071936;28;20188;-75
2023/07/30 02:01:58;;;;;;;5.97;3.20;;;;;;;19.61;65.67;96774.88;5072421;28;20855;-75
2023/07/30 02:04:25;;;;;;;6.57;3.77;;;;;;;19.62;65.91;96784.44;5090150;28;20188;-72
2023/07/30 02:06:52;;;;;;;3.80;3.10;;;;;;;19.74;65.56;96794.69;5090267;28;20234;-72
2023/07/30 02:09:20;;;;;;;4.87;3.50;;;;;;;19.67;65.56;96788.31;5090173;28;20310;-72
2023/07/30 02:11:47;;;;;;;4.97;3.47;;;;;;;19.90;64.61;96799.47;5089977;28;20199;-72
2023/07/30 02:14:14;;;;;;;8.23;3.90;;;;;;;19.91;64.08;96794.09;5072246;28;20193;-73
2023/07/30 02:16:41;;;;;;;4.63;3.57;;;;;;;19.88;63.72;96790.91;5089797;28;20196;-73
2023/07/30 02:19:09;;;;;;;5.40;3.70;;;;;;;19.92;63.22;96781.78;5090088;28;20592;-72
2023/07/30 02:21:38;;;;;;;4.37;3.40;;;;;;;20.06;63.17;96795.38;5055010;28;20244;-74
2023/07/30 02:24:09;;;;;;;4.07;3.53;;;;;;;20.09;62.45;96799.56;5089809;28;20189;-73
2023/07/30 02:26:38;;;;;;;3.70;3.30;;;;;;;20.02;62.70;96798.41;5089849;28;20196;-73
2023/07/30 02:29:05;;;;;;;4.30;3.20;;;;;;;20.32;61.74;96797.56;5071637;28;20199;-73
2023/07/30 02:31:32;;;;;;;4.43;3.50;;;;;;;20.37;61.14;96793.53;5071897;28;20215;-74
2023/07/30 02:34:00;;;;;;;3.70;3.30;;;;;;;20.12;61.63;96800.09;5089847;28;20193;-74
2023/07/30 02:36:27;;;;;;;4.33;3.57;;;;;;;19.92;62.49;96800.19;5090869;28;20721;-74
2023/07/30 02:38:54;;;;;;;3.87;3.50;;;;;;;20.03;62.06;96805.34;5090218;28;20191;-76
2023/07/30 02:41:21;;;;;;;5.67;3.50;;;;;;;20.38;61.18;96800.44;5071809;28;20691;-77
2023/07/30 02:43:48;;;;;;;3.83;3.50;;;;;;;20.49;60.72;96804.78;5071591;28;20184;-75
2023/07/30 02:46:15;;;;;;;4.30;3.17;;;;;;;20.53;60.51;96791.22;5070729;28;20185;-77
2023/07/30 02:48:43;;;;;;;5.97;3.30;;;;;;;20.60;60.35;96808.13;5090068;28;20192;-75
2023/07/30 02:51:10;;;;;;;3.40;3.10;;;;;;;20.68;59.94;96805.63;5070933;28;20216;-74
2023/07/30 02:53:37;;;;;;;3.77;3.30;;;;;;;20.59;59.94;96808.25;5071391;28;20192;-82
2023/07/30 02:56:04;;;;;;;5.33;3.60;;;;;;;20.20;61.10;96807.34;5071027;28;20189;-83
2023/07/30 02:58:31;;;;;;;5.47;4.10;;;;;;;20.11;61.97;96813.41;5071145;28;20192;-82
2023/07/30 03:01:09;;;;;;;5.13;3.77;;;;;;;19.90;62.07;96791.59;5071062;28;20603;-82
2023/07/30 03:03:36;;;;;;;7.90;4.40;;;;;;;19.90;62.25;96815.25;5089041;28;20188;-83
2023/07/30 03:06:03;;;;;;;4.23;3.57;;;;;;;19.92;62.73;96815.94;5089589;28;20252;-81
2023/07/30 03:08:31;;;;;;;4.10;3.40;;;;;;;19.81;62.71;96808.16;5070544;28;20227;-80
2023/07/30 03:10:59;;;;;;;3.37;3.07;;;;;;;19.82;62.99;96807.19;5089265;28;20212;-84
2023/07/30 03:13:26;;;;;;;7.43;3.70;;;;;;;19.95;62.70;96818.28;5070799;28;20289;-84
2023/07/30 03:15:53;;;;;;;7.93;4.43;;;;;;;19.76;62.70;96791.97;5089119;28;20681;-82
2023/07/30 03:18:21;;;;;;;4.07;3.43;;;;;;;19.97;62.34;96817.22;5070869;28;20202;-81
2023/07/30 03:20:48;;;;;;;5.17;3.73;;;;;;;19.87;62.38;96800.56;5088664;28;20192;-81
2023/07/30 03:23:15;;;;;;;5.13;3.87;;;;;;;19.96;62.60;96819.97;5071014;28;20196;-83
2023/07/30 03:25:42;;;;;;;4.73;3.93;;;;;;;19.91;62.47;96816.91;5053451;28;20649;-82
2023/07/30 03:28:09;;;;;;;3.57;3.27;;;;;;;20.08;62.57;96826.78;5071013;28;20212;-79
2023/07/30 03:30:36;;;;;;;4.30;3.90;;;;;;;19.87;63.33;96820.75;5070439;28;20273;-85
2023/07/30 03:33:05;;;;;;;5.17;3.67;;;;;;;19.88;63.18;96817.19;5088530;28;20688;-80
2023/07/30 03:35:32;;;;;;;4.57;4.10;;;;;;;19.94;62.98;96811.38;5070346;28;20246;-73
2023/07/30 03:37:59;;;;;;;4.07;3.47;;;;;;;19.99;63.37;96812.66;5088258;28;20191;-73
2023/07/30 03:40:28;;;;;;;5.77;3.40;;;;;;;19.98;62.38;96786.50;5088764;28;20199;-74
2023/07/30 03:42:55;;;;;;;3.10;2.80;;;;;;;20.42;62.03;96828.19;5070221;28;20275;-74
2023/07/30 03:45:22;;;;;;;5.07;3.70;;;;;;;20.70;60.98;96819.50;5070302;28;20186;-75
2023/07/30 03:47:49;;;;;;;4.83;3.43;;;;;;;21.08;59.89;96823.13;5088361;28;20196;-76
2023/07/30 03:50:17;;;;;;;4.37;3.53;;;;;;;20.87;60.65;96818.81;5088913;28;20626;-72
2023/07/30 03:52:44;;;;;;;3.53;3.20;;;;;;;21.08;60.30;96817.84;5070465;28;20200;-75
2023/07/30 03:55:11;;;;;;;4.00;3.33;;;;;;;21.29;59.53;96821.97;5070062;28;20200;-73
2023/07/30 03:57:40;;;;;;;5.07;3.57;;;;;;;21.79;58.67;96819.91;5090137;28;20189;-79
2023/07/30 04:00:07;;;;;;;4.30;3.67;;;;;;;22.00;57.33;96820.56;5070731;28;20182;-76
2023/07/30 04:02:41;;;;;;;5.37;3.53;;;;;;;22.29;56.41;96825.69;5070181;28;20200;-75
2023/07/30 04:05:08;;;;;;;5.60;3.67;;;;;;;21.98;56.75;96821.69;5088050;28;20696;-74
2023/07/30 04:07:40;;;;;;;4.23;3.50;;;;;;;21.70;57.83;96829.50;5087938;28;20245;-73
2023/07/30 04:10:08;;;;;;;4.07;3.60;;;;;;;21.48;58.67;96826.38;5069854;28;20244;-78
2023/07/30 04:12:35;;;;;;;3.80;3.40;;;;;;;21.76;57.54;96833.41;5087733;28;20208;-74
2023/07/30 04:15:04;;;;;;;3.87;3.00;;;;;;;21.55;57.43;96828.31;5071155;28;20578;-76
2023/07/30 04:17:32;;;;;;;4.07;3.43;;;;;;;21.67;57.06;96818.44;5069821;28;20201;-73
2023/07/30 04:19:59;;;;;;;5.90;3.47;;;;;;;21.79;57.17;96839.22;5069740;28;20184;-72
2023/07/30 04:22:30;;;;;;;3.93;3.43;;;;;;;21.75;57.24;96834.34;5088090;28;20194;-73
2023/07/30 04:24:57;;;;;;;5.53;3.30;;;;;;;21.99;57.19;96839.19;5088326;28;20210;-73
2023/07/30 04:27:27;;;;;;;3.30;3.00;;;;;;;22.16;56.92;96838.38;5070987;28;20308;-80
2023/07/30 04:30:02;;;;;;;3.57;3.27;;;;;;;22.26;57.07;96847.91;5070050;28;20199;-79
2023/07/30 04:32:33;;;;;;;4.67;3.40;;;;;;;21.90;58.07;96846.16;5054049;28;20197;-81
2023/07/30 04:35:02;;;;;;;3.70;3.03;;;;;;;21.68;59.09;96842.00;5069753;28;20187;-73
2023/07/30 04:37:30;;;;;;;3.30;3.00;;;;;;;21.79;59.14;96848.91;5069415;28;20186;-73
2023/07/30 04:39:58;;;;;;;3.67;3.07;;;;;;;21.94;58.62;96842.25;5069601;28;20240;-73
2023/07/30 04:42:32;;;;;;;3.83;3.50;;;;;;;22.49;56.14;96851.81;5069808;28;20214;-73
2023/07/30 04:44:59;;;;;;;3.90;3.50;;;;;;;22.08;56.85;96830.38;5069288;28;20206;-72
2023/07/30 04:47:27;;;;;;;4.27;3.33;;;;;;;22.17;56.67;96855.88;5069040;28;20566;-72
2023/07/30 04:49:54;;;;;;;3.63;3.10;;;;;;;22.11;56.28;96853.84;5069235;28;20234;-73
2023/07/30 04:52:21;;;;;;;3.77;3.30;;;;;;;22.64;55.54;96857.47;5068691;28;20768;-72
2023/07/30 04:54:48;;;;;;;7.10;3.77;;;;;;;23.27;53.70;96855.59;5069247;28;20182;-74
2023/07/30 04:57:16;;;;;;;6.00;4.43;;;;;;;23.61;53.16;96850.44;5069125;28;20280;-72
2023/07/30 04:59:43;;;;;;;4.83;3.97;;;;;;;23.91;52.16;96855.25;5088229;28;20280;-72
2023/07/30 05:02:11;;;;;;;5.30;4.00;;;;;;;24.20;52.17;96853.13;5087682;28;20721;-76
2023/07/30 05:04:39;;;;;;;4.27;3.60;;;;;;;24.75;50.91;96850.88;5035879;28;20288;-72
2023/07/30 05:07:06;;;;;;;4.17;3.70;;;;;;;24.74;49.78;96857.16;5087683;28;20190;-74
2023/07/30 05:09:34;;;;;;;5.90;3.67;;;;;;;24.60;50.57;96857.75;5068520;28;20250;-75
2023/07/30 05:12:01;;;;;;;4.83;4.33;;;;;;;24.92;50.38;96841.94;5086917;28;20226;-72
2023/07/30 05:14:28;;;;;;;5.50;4.17;;;;;;;24.92;49.27;96826.06;5068828;28;20205;-72
2023/07/30 05:16:55;;;;;;;4.20;3.13;;;;;;;25.02;49.13;96855.88;5086725;28;20202;-72
2023/07/30 05:19:22;;;;;;;6.23;3.73;;;;;;;24.94;49.16;96854.06;5087222;28;20656;-76
2023/07/30 05:21:50;;;;;;;4.47;3.70;;;;;;;25.33;48.71;96850.75;5069537;28;20191;-75
2023/07/30 05:24:17;;;;;;;5.13;3.50;;;;;;;25.51;47.59;96854.94;5070740;28;20189;-75
2023/07/30 05:26:45;;;;;;;3.53;2.90;;;;;;;25.60;47.23;96845.97;5053796;28;20200;-76
2023/07/30 05:29:12;;;;;;;3.77;3.00;;;;;;;25.56;46.87;96852.63;5088907;28;20206;-79
2023/07/30 05:31:39;;;;;;;3.47;3.13;;;;;;;25.35;48.14;96854.09;5088962;28;20271;-79
2023/07/30 05:34:07;;;;;;;3.33;3.00;;;;;;;25.31;48.53;96856.22;5070223;28;20218;-76
2023/07/30 05:36:35;;;;;;;4.27;2.80;;;;;;;25.47;47.82;96848.31;5090045;28;20187;-80
2023/07/30 05:39:02;;;;;;;4.53;3.00;;;;;;;25.56;47.03;96846.47;5069493;28;20207;-80
2023/07/30 05:41:30;;;;;;;3.60;2.90;;;;;;;25.38;47.55;96817.47;5087678;28;20672;-77
2023/07/30 05:44:00;;;;;;;3.20;2.90;;;;;;;25.38;47.81;96851.09;5069835;28;20203;-75
2023/07/30 05:46:28;;;;;;;3.30;3.00;;;;;;;24.75;49.15;96834.97;5087080;28;20187;-72
2023/07/30 05:48:55;;;;;;;4.23;3.27;;;;;;;24.67;49.68;96851.63;5086640;28;20199;-77
2023/07/30 05:51:23;;;;;;;3.70;3.37;;;;;;;24.70;49.43;96863.72;5086658;28;20224;-74
2023/07/30 05:53:51;;;;;;;4.57;3.30;;;;;;;24.80;49.42;96854.69;5053011;28;20188;-75
2023/07/30 05:56:19;;;;;;;3.70;3.20;;;;;;;24.88;49.59;96862.66;5051806;28;20205;-77
2023/07/30 05:58:47;;;;;;;7.17;3.10;;;;;;;25.16;48.65;96849.13;5087400;28;20703;-72
2023/07/30 06:01:14;;;;;;;3.57;3.00;;;;;;;25.21;48.71;96857.38;5086447;28;20284;-74
2023/07/30 06:03:42;;;;;;;3.20;2.90;;;;;;;25.12;48.59;96853.94;5035343;28;20204;-74
2023/07/30 06:06:09;;;;;;;3.73;3.30;;;;;;;25.49;47.78;96862.22;5086246;28;20184;-72
2023/07/30 06:09:16;;;;;;;3.83;3.33;;;;;;;25.81;47.54;96856.91;5080969;28;20307;-73
2023/07/30 06:12:37;;;;;;;5.43;3.50;;;;;;;26.76;45.65;96858.59;5082946;28;20229;-73
2023/07/30 06:15:57;;;;;;;4.07;3.30;;;;;;;27.13;44.40;96852.56;5084880;28;20185;-72
2023/07/30 06:19:18;;;;;;;4.03;3.47;;;;;;;27.36;44.15;96848.09;5084495;28;20196;-79
2023/07/30 06:21:59;;;;;;;7.67;4.00;;;;;;;27.59;43.08;96846.25;5050377;28;20675;-73
2023/07/30 06:24:26;;;;;;;6.17;3.57;;;;;;;27.81;42.68;96844.53;5086837;28;20246;-73
2023/07/30 06:26:53;;;;;;;3.80;3.03;;;;;;;27.99;42.46;96850.34;5089223;28;20676;-74
2023/07/30 06:29:20;;;;;;;5.32;2.90;;;;;;;27.68;41.93;96846.97;5087827;28;20459;-72
2023/07/30 06:31:47;;;;;;;3.53;3.00;;;;;;;27.93;42.19;96848.38;5090030;28;20324;-74
2023/07/30 06:34:15;;;;;;;3.00;2.70;;;;;;;27.86;41.61;96836.81;5072055;28;20254;-77
2023/07/30 06:36:43;;;;;;;3.50;3.20;;;;;;;27.92;41.95;96841.41;5089665;28;20204;-79
2023/07/30 06:39:10;;;;;;;4.23;3.83;;;;;;;28.32;41.17;96840.16;5089875;28;20185;-75
2023/07/30 06:41:38;;;;;;;4.87;2.97;;;;;;;28.29;41.10;96827.22;5090324;28;20216;-76
2023/07/30 06:44:08;;;;;;;4.60;2.73;;;;;;;28.25;40.76;96826.78;5089693;28;20195;-80
2023/07/30 06:46:36;;;;;;;5.27;3.13;;;;;;;28.40;41.10;96835.56;5090488;28;20188;-75
2023/07/30 06:49:03;;;;;;;4.77;3.40;;;;;;;28.34;41.44;96836.31;5055244;28;20204;-77
2023/07/30 06:51:31;;;;;;;4.70;2.80;;;;;;;28.47;40.69;96836.47;5071709;28;20216;-77
2023/07/30 06:53:59;;;;;;;3.07;2.53;;;;;;;28.80;40.31;96843.06;5089605;28;20278;-75
2023/07/30 06:56:28;;;;;;;3.40;2.90;;;;;;;28.89;40.60;96833.13;5055812;28;20698;-78
2023/07/30 06:58:56;;;;;;;3.23;2.93;;;;;;;28.79;39.09;96822.72;5072401;28;20212;-80
2023/07/30 07:01:23;;;;;;;3.10;2.80;;;;;;;28.69;39.99;96826.72;5090717;28;20196;-80
2023/07/30 07:03:51;;;;;;;3.40;3.10;;;;;;;28.83;39.40;96818.69;5071185;28;20728;-77
2023/07/30 07:06:19;;;;;;;3.50;2.53;;;;;;;28.70;39.70;96813.22;5071011;28;20193;-77
2023/07/30 07:08:46;;;;;;;4.70;3.47;;;;;;;28.99;38.83;96814.97;5088520;28;20286;-78
2023/07/30 07:11:13;;;;;;;5.47;3.20;;;;;;;29.14;38.96;96809.56;5070971;28;20224;-77
2023/07/30 07:13:43;;;;;;;4.60;3.43;;;;;;;29.00;38.94;96816.59;5054536;28;20319;-78
2023/07/30 07:16:10;;;;;;;4.27;3.40;;;;;;;29.09;38.97;96811.97;5089429;28;20196;-78
2023/07/30 07:18:38;;;;;;;5.47;3.20;;;;;;;29.06;39.23;96796.38;5088647;28;20192;-80
2023/07/30 07:21:05;;;;;;;4.53;3.77;;;;;;;29.14;38.79;96791.69;5088913;28;20195;-77
2023/07/30 07:23:32;;;;;;;9.17;3.23;;;;;;;29.47;38.38;96808.06;5088555;28;20189;-78
2023/07/30 07:25:59;;;;;;;3.90;3.17;;;;;;;29.68;37.76;96806.16;5088477;28;20219;-80
2023/07/30 07:28:26;;;;;;;4.33;3.00;;;;;;;29.77;37.96;96795.34;5070601;28;20257;-78
2023/07/30 07:30:55;;;;;;;4.83;3.10;;;;;;;29.32;37.95;96775.28;5070810;28;20237;-78
2023/07/30 07:33:22;;;;;;;5.20;3.40;;;;;;;29.53;38.07;96796.59;5071480;28;20658;-79
2023/07/30 07:35:51;;;;;;;6.00;3.83;;;;;;;29.69;38.17;96798.97;5089464;28;20201;-81
2023/07/30 07:38:20;;;;;;;3.97;3.17;;;;;;;29.74;37.06;96783.22;5039293;28;20200;-80
2023/07/30 07:40:47;;;;;;;3.20;2.90;;;;;;;29.66;36.98;96781.50;5089137;28;20211;-83
2023/07/30 07:43:18;;;;;;;4.50;3.50;;;;;;;29.76;37.04;96791.03;5070539;28;20600;-81
2023/07/30 07:45:46;;;;;;;3.77;2.40;;;;;;;29.89;35.88;96794.63;5054130;28;20286;-79
2023/07/30 07:48:16;;;;;;;3.13;2.83;;;;;;;30.02;36.55;96792.03;5053653;28;20243;-79
2023/07/30 07:50:45;;;;;;;3.50;3.17;;;;;;;30.09;37.13;96798.22;5088996;28;20200;-80
2023/07/30 07:53:14;;;;;;;27.57;4.40;;;;;;;29.88;36.30;96790.31;5088401;28;20189;-81
2023/07/30 07:55:50;;;;;;;7.00;4.37;;;;;;;29.82;38.04;96769.69;5089575;28;20278;-76
2023/07/30 07:58:17;;;;;;;3.87;3.23;;;;;;;30.02;35.81;96788.53;5088466;28;20592;-80
2023/07/30 08:00:47;;;;;;;6.23;3.73;;;;;;;30.09;36.41;96771.50;5087909;28;20200;-81
2023/07/30 08:03:22;;;;;;;4.10;3.13;;;;;;;30.40;35.85;96787.91;5088538;28;20203;-81
2023/07/30 08:05:51;;;;;;;4.57;2.70;;;;;;;30.56;34.55;96784.09;5087860;28;20192;-78
2023/07/30 08:08:18;;;;;;;6.50;2.73;;;;;;;30.79;34.61;96787.22;5088277;28;20200;-77
2023/07/30 08:10:47;;;;;;;4.50;2.90;;;;;;;30.87;34.80;96764.88;5070019;28;20522;-78
2023/07/30 08:13:15;;;;;;;3.50;2.80;;;;;;;30.79;33.80;96781.06;5088315;28;20283;-78
2023/07/30 08:15:42;;;;;;;3.10;2.60;;;;;;;30.59;33.72;96780.16;5087676;28;20234;-78
2023/07/30 08:18:10;;;;;;;3.20;2.87;;;;;;;30.34;34.34;96758.50;5087599;28;20223;-77
2023/07/30 08:20:39;;;;;;;3.30;3.00;;;;;;;30.54;34.91;96775.44;5062697;28;20208;-75
2023/07/30 08:23:06;;;;;;;4.23;2.60;;;;;;;30.56;35.18;96767.22;5052158;28;20246;-77
2023/07/30 08:25:33;;;;;;;2.73;1.93;;;;;;;30.73;33.87;96752.47;5087559;28;20218;-79
2023/07/30 08:28:01;;;;;;;3.07;2.50;;;;;;;30.81;33.29;96771.78;5086743;28;20192;-76
2023/07/30 08:30:28;;;;;;;3.87;2.90;;;;;;;31.02;33.84;96769.00;5069471;28;20211;-78
2023/07/30 08:32:55;;;;;;;2.73;2.03;;;;;;;30.95;33.56;96740.59;5068808;28;20234;-79
2023/07/30 08:35:23;;;;;;;2.77;2.30;;;;;;;31.17;32.98;96752.75;5087373;28;20200;-75
2023/07/30 08:37:50;;;;;;;5.00;2.50;;;;;;;31.19;33.24;96766.75;5087298;28;20181;-79
2023/07/30 08:40:17;;;;;;;3.00;2.70;;;;;;;31.12;33.79;96761.38;5087435;28;20659;-77
2023/07/30 08:42:45;;;;;;;3.17;2.40;;;;;;;30.95;32.59;96713.84;5087186;28;20679;-77
2023/07/30 08:45:12;;;;;;;3.43;2.43;;;;;;;31.06;32.58;96732.78;5086854;28;20215;-79
2023/07/30 08:47:41;;;;;;;2.58;2.13;;;;;;;31.26;32.80;96738.94;5088372;28;20191;-79
2023/07/30 08:50:08;;;;;;;5.38;2.38;;;;;;;31.16;31.42;96722.47;5054429;28;20184;-80
2023/07/30 08:52:36;;;;;;;2.20;2.00;;;;;;;31.29;31.32;96751.94;5088982;28;20215;-80
2023/07/30 08:55:05;;;;;;;2.97;2.23;;;;;;;31.47;32.06;96742.50;5070117;28;20262;-82
2023/07/30 08:57:33;;;;;;;2.92;2.58;;;;;;;31.35;32.46;96739.56;5052558;28;20208;-83
2023/07/30 09:00:08;;;;;;;4.78;2.50;;;;;;;31.50;32.28;96737.53;5069872;28;20657;-83
2023/07/30 09:02:48;;;;;;;5.30;2.38;;;;;;;31.76;30.91;96737.47;5087284;28;20199;-77
2023/07/30 09:05:15;;;;;;;2.38;2.17;;;;;;;31.77;31.13;96744.50;5086991;28;20188;-76
2023/07/30 09:07:43;;;;;;;2.70;2.20;;;;;;;31.67;31.46;96740.59;5052226;28;20192;-81
2023/07/30 09:10:10;;;;;;;2.80;2.22;;;;;;;31.84;31.52;96734.56;5064953;28;20308;-76
2023/07/30 09:12:37;;;;;;;4.00;2.22;;;;;;;31.88;31.15;96733.13;5049157;28;20216;-76
2023/07/30 09:15:06;;;;;;;4.30;2.88;;;;;;;31.95;31.58;96706.34;5066437;28;20207;-78
2023/07/30 09:17:34;;;;;;;4.78;2.28;;;;;;;32.12;30.92;96722.78;5066751;28;20696;-77
2023/07/30 09:20:05;;;;;;;3.75;2.22;;;;;;;31.91;31.18;96724.69;5066803;28;20287;-81
2023/07/30 09:22:39;;;;;;;2.97;2.67;;;;;;;32.09;31.14;96727.53;5067282;28;20478;-73
2023/07/30 09:25:07;;;;;;;2.45;2.15;;;;;;;32.04;30.96;96711.28;5068048;28;20212;-77
2023/07/30 09:27:35;;;;;;;4.05;2.35;;;;;;;32.18;31.10;96716.56;5066373;28;20661;-78
2023/07/30 09:30:06;;;;;;;2.55;2.28;;;;;;;32.07;30.70;96715.38;5067044;28;20197;-80
2023/07/30 09:32:35;;;;;;;3.80;2.67;;;;;;;31.98;30.89;96693.34;5065251;28;20714;-78
2023/07/30 09:35:10;;;;;;;6.65;2.78;;;;;;;32.03;31.21;96709.63;5065494;28;20282;-81
2023/07/30 09:37:41;;;;;;;4.03;3.10;;;;;;;32.02;31.14;96699.13;5067165;28;20184;-76
2023/07/30 09:40:14;;;;;;;3.15;2.85;;;;;;;31.90;31.14;96698.91;5066731;28;20203;-77
2023/07/30 09:42:48;;;;;;;3.00;2.30;;;;;;;31.54;31.49;96690.56;5066850;28;20190;-76
2023/07/30 09:45:23;;;;;;;2.72;2.33;;;;;;;31.86;31.97;96684.28;5066330;28;20220;-77
2023/07/30 09:47:56;;;;;;;3.70;2.60;;;;;;;32.03;31.27;96692.72;5066587;28;20193;-77
2023/07/30 09:50:23;;;;;;;4.28;2.65;;;;;;;31.89;31.64;96691.09;5059605;28;20575;-79
2023/07/30 09:52:50;;;;;;;3.30;3.00;;;;;;;31.81;31.27;96673.41;5046626;28;20229;-76
2023/07/30 09:55:18;;;;;;;4.60;3.28;;;;;;;32.01;31.93;96666.13;5050762;28;20194;-78
2023/07/30 09:57:47;;;;;;;5.32;2.83;;;;;;;31.78;30.97;96641.66;5051996;28;20197;-76
2023/07/30 10:00:14;;;;;;;6.25;3.80;;;;;;;32.11;32.42;96667.56;5052611;28;20229;-81
2023/07/30 10:02:55;;;;;;;5.32;3.00;;;;;;;32.09;30.72;96652.50;5049510;28;20197;-79
2023/07/30 10:05:28;;;;;;;3.58;3.28;;;;;;;32.32;31.17;96661.84;5033495;28;20281;-79
2023/07/30 10:08:00;;;;;;;4.18;2.72;;;;;;;32.35;31.16;96658.75;5050276;28;20190;-77
2023/07/30 10:10:29;;;;;;;3.60;2.92;;;;;;;32.25;31.07;96653.03;5069388;28;20225;-76
2023/07/30 10:13:00;;;;;;;5.70;3.13;;;;;;;32.29;30.05;96656.94;5052335;28;20270;-80
2023/07/30 10:15:27;;;;;;;3.83;2.90;;;;;;;31.93;30.61;96650.31;5069980;28;20192;-78
2023/07/30 10:17:57;;;;;;;4.72;2.90;;;;;;;32.08;30.67;96650.03;5070194;28;20292;-82
2023/07/30 10:20:31;;;;;;;4.25;2.58;;;;;;;31.90;30.54;96655.25;5069749;28;20698;-80
2023/07/30 10:22:59;;;;;;;5.68;3.00;;;;;;;31.97;31.08;96623.91;5069832;28;20567;-80
2023/07/30 10:25:45;;;;;;;3.40;3.05;;;;;;;31.99;30.18;96633.38;5051373;28;20251;-80
2023/07/30 10:28:33;;;;;;;4.60;2.67;;;;;;;32.33;30.77;96644.75;5069306;28;20585;-83
2023/07/30 10:31:13;;;;;;;3.70;2.78;;;;;;;32.38;30.78;96639.53;5069712;28;20212;-76
2023/07/30 10:33:45;;;;;;;4.60;3.00;;;;;;;32.34;30.73;96632.97;5069095;28;20247;-78
2023/07/30 10:36:12;;;;;;;3.80;2.90;;;;;;;32.33;29.95;96629.50;5069198;28;20231;-77
2023/07/30 10:38:41;;;;;;;4.28;3.40;;;;;;;32.46;29.45;96637.47;5069506;28;20675;-78
2023/07/30 10:41:16;;;;;;;3.70;2.90;;;;;;;32.12;29.97;96640.53;5051388;28;20193;-77
2023/07/30 10:43:47;;;;;;;3.58;3.13;;;;;;;32.47;29.93;96630.25;5070248;28;20201;-76
2023/07/30 10:46:16;;;;;;;3.38;2.80;;;;;;;32.53;29.25;96613.28;5068956;28;20247;-79
2023/07/30 10:48:47;;;;;;;4.43;2.95;;;;;;;32.68;29.62;96609.25;5069414;28;20625;-78
2023/07/30 10:51:16;;;;;;;3.38;2.80;;;;;;;33.07;28.70;96626.91;5069373;28;20277;-77
2023/07/30 10:53:48;;;;;;;3.17;2.88;;;;;;;33.15;28.73;96613.22;5069412;28;20249;-78
2023/07/30 10:56:26;;;;;;;3.90;3.40;;;;;;;33.12;28.66;96591.38;5071207;28;20699;-80
2023/07/30 10:58:54;;;;;;;3.88;3.13;;;;;;;33.32;28.39;96618.81;5062200;28;20204;-81
2023/07/30 11:01:26;;;;;;;4.53;3.42;;;;;;;32.99;28.24;96624.50;5090289;28;20270;-78
2023/07/30 11:03:53;;;;;;;4.13;2.97;;;;;;;33.02;27.93;96607.13;5050310;28;20205;-77
2023/07/30 11:06:24;;;;;;;3.83;3.42;;;;;;;33.22;28.04;96610.47;5072192;28;20212;-77
2023/07/30 11:08:52;;;;;;;5.03;3.40;;;;;;;33.20;28.93;96607.97;5078838;28;20235;-78
2023/07/30 11:11:59;;;;;;;3.67;3.00;;;;;;;32.72;28.53;96605.09;5075234;28;20247;-77
2023/07/30 11:15:19;;;;;;;4.88;3.13;;;;;;;32.59;29.58;96605.19;5078645;28;20242;-76
2023/07/30 11:18:41;;;;;;;3.13;2.83;;;;;;;32.76;28.91;96571.44;5088242;28;20580;-74
2023/07/30 11:22:09;;;;;;;3.78;3.10;;;;;;;33.33;29.18;96599.78;5088301;28;20185;-75
2023/07/30 11:25:35;;;;;;;2.50;2.30;;;;;;;33.59;28.61;96596.84;5087821;28;20200;-77
2023/07/30 11:28:49;;;;;;;7.07;3.17;;;;;;;33.59;28.94;96593.34;5087933;28;20180;-75
2023/07/30 11:32:11;;;;;;;3.42;3.00;;;;;;;33.29;28.96;96577.13;5088218;28;20184;-77
2023/07/30 11:34:53;;;;;;;3.05;2.75;;;;;;;33.56;28.92;96575.00;5076206;28;20291;-74
2023/07/30 11:37:21;;;;;;;3.80;2.92;;;;;;;33.74;28.36;96584.91;5070341;28;20711;-74
2023/07/30 11:39:49;;;;;;;6.70;3.85;;;;;;;33.62;28.36;96593.72;5088364;28;20292;-76
2023/07/30 11:42:16;;;;;;;3.65;3.28;;;;;;;33.75;28.51;96587.38;5087947;28;20564;-76
2023/07/30 11:44:43;;;;;;;4.07;3.67;;;;;;;33.88;27.52;96584.50;5088200;28;20238;-77
2023/07/30 11:47:10;;;;;;;4.05;3.33;;;;;;;33.88;28.37;96584.50;5069575;28;20684;-76
2023/07/30 11:49:37;;;;;;;3.80;3.08;;;;;;;33.98;28.85;96570.53;5087211;28;20192;-77